sensor_id;sensor_type;location;lat;lon;timestamp;P1;durP1;ratioP1;P2;durP2;ratioP2
43706;SDS011;61348;53.392;-6.248;2024-02-21T00:01:24;5.95;;;1.95;;
43706;SDS011;61348;53.392;-6.248;2024-02-21T00:03:51;7.55;;;2.42;;
43706;SDS011;61348;53.392;-6.248;2024-02-21T00:06:19;6.60;;;2.20;;
43706;SDS011;61348;53.392;-6.248;2024-02-21T00:08:46;6.18;;;1.98;;
43706;SDS011;61348;53.392;-6.248;2024-02-21T00:11:13;7.53;;;2.00;;
43706;SDS011;61348;53.392;-6.248;2024-02-21T00:13:41;9.10;;;2.03;;
43706;SDS011;61348;53.392;-6.248;2024-02-21T00:16:09;8.13;;;2.05;;
43706;SDS011;61348;53.392;-6.248;2024-02-21T00:18:37;4.55;;;1.52;;
43706;SDS011;61348;53.392;-6.248;2024-02-21T00:21:05;6.82;;;1.65;;
43706;SDS011;61348;53.392;-6.248;2024-02-21T00:23:32;8.73;;;2.05;;
43706;SDS011;61348;53.392;-6.248;2024-02-21T00:25:59;7.20;;;2.10;;
43706;SDS011;61348;53.392;-6.248;2024-02-21T00:28:27;6.88;;;2.10;;
43706;SDS011;61348;53.392;-6.248;2024-02-21T00:30:54;10.10;;;1.52;;
43706;SDS011;61348;53.392;-6.248;2024-02-21T00:33:22;9.85;;;2.30;;
43706;SDS011;61348;53.392;-6.248;2024-02-21T00:35:49;9.48;;;1.75;;
43706;SDS011;61348;53.392;-6.248;2024-02-21T00:38:16;10.20;;;2.33;;
43706;SDS011;61348;53.392;-6.248;2024-02-21T00:40:44;10.90;;;4.53;;
43706;SDS011;61348;53.392;-6.248;2024-02-21T00:43:11;11.77;;;2.28;;
43706;SDS011;61348;53.392;-6.248;2024-02-21T00:45:38;7.18;;;1.23;;
43706;SDS011;61348;53.392;-6.248;2024-02-21T00:48:06;6.97;;;2.20;;
43706;SDS011;61348;53.392;-6.248;2024-02-21T00:50:34;4.88;;;2.15;;
43706;SDS011;61348;53.392;-6.248;2024-02-21T00:53:01;5.15;;;2.28;;
43706;SDS011;61348;53.392;-6.248;2024-02-21T00:55:29;6.38;;;1.20;;
43706;SDS011;61348;53.392;-6.248;2024-02-21T00:57:56;3.50;;;1.05;;
43706;SDS011;61348;53.392;-6.248;2024-02-21T01:00:23;1.85;;;0.63;;
43706;SDS011;61348;53.392;-6.248;2024-02-21T01:02:51;7.18;;;1.45;;
43706;SDS011;61348;53.392;-6.248;2024-02-21T01:05:20;3.08;;;0.90;;
43706;SDS011;61348;53.392;-6.248;2024-02-21T01:07:47;3.10;;;0.70;;
43706;SDS011;61348;53.392;-6.248;2024-02-21T01:10:14;9.88;;;1.25;;
43706;SDS011;61348;53.392;-6.248;2024-02-21T01:12:42;1.67;;;0.68;;
43706;SDS011;61348;53.392;-6.248;2024-02-21T01:15:09;7.57;;;1.55;;
43706;SDS011;61348;53.392;-6.248;2024-02-21T01:17:38;4.00;;;1.20;;
43706;SDS011;61348;53.392;-6.248;2024-02-21T01:20:07;1.27;;;1.02;;
43706;SDS011;61348;53.392;-6.248;2024-02-21T01:22:35;3.58;;;1.15;;
43706;SDS011;61348;53.392;-6.248;2024-02-21T01:25:03;3.20;;;1.02;;
43706;SDS011;61348;53.392;-6.248;2024-02-21T01:27:30;4.45;;;1.67;;
43706;SDS011;61348;53.392;-6.248;2024-02-21T01:29:57;5.38;;;1.40;;
43706;SDS011;61348;53.392;-6.248;2024-02-21T01:32:25;9.60;;;1.17;;
43706;SDS011;61348;53.392;-6.248;2024-02-21T01:34:52;5.20;;;1.73;;
43706;SDS011;61348;53.392;-6.248;2024-02-21T01:37:20;4.45;;;1.52;;
43706;SDS011;61348;53.392;-6.248;2024-02-21T01:39:47;2.83;;;2.13;;
43706;SDS011;61348;53.392;-6.248;2024-02-21T01:42:16;6.32;;;4.00;;
43706;SDS011;61348;53.392;-6.248;2024-02-21T01:44:43;6.40;;;2.17;;
43706;SDS011;61348;53.392;-6.248;2024-02-21T01:47:11;4.55;;;1.52;;
43706;SDS011;61348;53.392;-6.248;2024-02-21T01:49:41;4.50;;;1.65;;
43706;SDS011;61348;53.392;-6.248;2024-02-21T01:52:08;3.20;;;1.55;;
43706;SDS011;61348;53.392;-6.248;2024-02-21T01:54:39;3.95;;;1.75;;
43706;SDS011;61348;53.392;-6.248;2024-02-21T01:57:06;3.50;;;2.75;;
43706;SDS011;61348;53.392;-6.248;2024-02-21T01:59:34;8.15;;;2.10;;
43706;SDS011;61348;53.392;-6.248;2024-02-21T02:02:03;3.72;;;1.95;;
43706;SDS011;61348;53.392;-6.248;2024-02-21T02:04:30;7.70;;;2.65;;
43706;SDS011;61348;53.392;-6.248;2024-02-21T02:06:59;11.20;;;2.40;;
43706;SDS011;61348;53.392;-6.248;2024-02-21T02:09:29;7.20;;;2.33;;
43706;SDS011;61348;53.392;-6.248;2024-02-21T02:11:57;5.82;;;2.17;;
43706;SDS011;61348;53.392;-6.248;2024-02-21T02:14:26;11.23;;;3.80;;
43706;SDS011;61348;53.392;-6.248;2024-02-21T02:16:53;13.75;;;4.20;;
43706;SDS011;61348;53.392;-6.248;2024-02-21T02:19:20;13.27;;;7.25;;
43706;SDS011;61348;53.392;-6.248;2024-02-21T02:21:53;17.90;;;7.22;;
43706;SDS011;61348;53.392;-6.248;2024-02-21T02:24:25;18.23;;;8.35;;
43706;SDS011;61348;53.392;-6.248;2024-02-21T02:26:53;16.20;;;10.10;;
43706;SDS011;61348;53.392;-6.248;2024-02-21T02:29:20;22.63;;;8.95;;
43706;SDS011;61348;53.392;-6.248;2024-02-21T02:31:48;20.25;;;7.32;;
43706;SDS011;61348;53.392;-6.248;2024-02-21T02:34:16;12.63;;;6.72;;
43706;SDS011;61348;53.392;-6.248;2024-02-21T02:36:44;20.67;;;7.80;;
43706;SDS011;61348;53.392;-6.248;2024-02-21T02:39:11;14.65;;;7.30;;
43706;SDS011;61348;53.392;-6.248;2024-02-21T02:41:38;15.95;;;6.90;;
43706;SDS011;61348;53.392;-6.248;2024-02-21T02:44:05;22.65;;;9.52;;
43706;SDS011;61348;53.392;-6.248;2024-02-21T02:46:33;11.65;;;6.80;;
43706;SDS011;61348;53.392;-6.248;2024-02-21T02:49:01;15.65;;;6.82;;
43706;SDS011;61348;53.392;-6.248;2024-02-21T02:51:28;14.27;;;6.85;;
43706;SDS011;61348;53.392;-6.248;2024-02-21T02:53:56;15.35;;;5.85;;
43706;SDS011;61348;53.392;-6.248;2024-02-21T02:56:24;15.70;;;6.45;;
43706;SDS011;61348;53.392;-6.248;2024-02-21T02:58:51;17.33;;;5.85;;
43706;SDS011;61348;53.392;-6.248;2024-02-21T03:01:19;18.55;;;6.35;;
43706;SDS011;61348;53.392;-6.248;2024-02-21T03:03:46;11.50;;;5.65;;
43706;SDS011;61348;53.392;-6.248;2024-02-21T03:06:14;15.35;;;6.38;;
43706;SDS011;61348;53.392;-6.248;2024-02-21T03:08:42;15.13;;;8.15;;
43706;SDS011;61348;53.392;-6.248;2024-02-21T03:11:09;14.85;;;5.40;;
43706;SDS011;61348;53.392;-6.248;2024-02-21T03:13:38;6.13;;;3.38;;
43706;SDS011;61348;53.392;-6.248;2024-02-21T03:16:05;7.88;;;3.05;;
43706;SDS011;61348;53.392;-6.248;2024-02-21T03:18:33;6.43;;;2.17;;
43706;SDS011;61348;53.392;-6.248;2024-02-21T03:21:00;7.55;;;1.50;;
43706;SDS011;61348;53.392;-6.248;2024-02-21T03:23:27;3.53;;;1.65;;
43706;SDS011;61348;53.392;-6.248;2024-02-21T03:25:55;2.90;;;0.85;;
43706;SDS011;61348;53.392;-6.248;2024-02-21T03:28:22;2.22;;;0.98;;
43706;SDS011;61348;53.392;-6.248;2024-02-21T03:30:49;2.08;;;1.67;;
43706;SDS011;61348;53.392;-6.248;2024-02-21T03:33:17;1.63;;;0.90;;
43706;SDS011;61348;53.392;-6.248;2024-02-21T03:35:44;6.22;;;1.02;;
43706;SDS011;61348;53.392;-6.248;2024-02-21T03:38:11;0.82;;;0.60;;
43706;SDS011;61348;53.392;-6.248;2024-02-21T03:40:39;1.15;;;1.10;;
43706;SDS011;61348;53.392;-6.248;2024-02-21T03:43:06;1.13;;;0.68;;
43706;SDS011;61348;53.392;-6.248;2024-02-21T03:45:34;1.60;;;0.52;;
43706;SDS011;61348;53.392;-6.248;2024-02-21T03:48:01;0.70;;;0.47;;
43706;SDS011;61348;53.392;-6.248;2024-02-21T03:50:29;1.17;;;0.77;;
43706;SDS011;61348;53.392;-6.248;2024-02-21T03:52:57;1.23;;;0.50;;
43706;SDS011;61348;53.392;-6.248;2024-02-21T03:55:24;0.90;;;0.60;;
43706;SDS011;61348;53.392;-6.248;2024-02-21T03:57:52;0.75;;;0.57;;
43706;SDS011;61348;53.392;-6.248;2024-02-21T04:00:19;0.60;;;0.40;;
43706;SDS011;61348;53.392;-6.248;2024-02-21T04:02:47;5.05;;;0.85;;
43706;SDS011;61348;53.392;-6.248;2024-02-21T04:05:15;0.98;;;0.43;;
43706;SDS011;61348;53.392;-6.248;2024-02-21T04:07:43;0.77;;;0.57;;
43706;SDS011;61348;53.392;-6.248;2024-02-21T04:10:10;0.80;;;0.57;;
43706;SDS011;61348;53.392;-6.248;2024-02-21T04:12:39;1.58;;;0.98;;
43706;SDS011;61348;53.392;-6.248;2024-02-21T04:15:06;2.88;;;1.50;;
43706;SDS011;61348;53.392;-6.248;2024-02-21T04:17:34;0.98;;;0.60;;
43706;SDS011;61348;53.392;-6.248;2024-02-21T04:20:02;1.88;;;0.82;;
43706;SDS011;61348;53.392;-6.248;2024-02-21T04:22:33;3.10;;;2.00;;
43706;SDS011;61348;53.392;-6.248;2024-02-21T04:25:00;0.77;;;0.60;;
43706;SDS011;61348;53.392;-6.248;2024-02-21T04:27:28;2.42;;;0.80;;
43706;SDS011;61348;53.392;-6.248;2024-02-21T04:29:55;0.60;;;0.60;;
43706;SDS011;61348;53.392;-6.248;2024-02-21T04:32:23;0.95;;;0.85;;
43706;SDS011;61348;53.392;-6.248;2024-02-21T04:34:50;1.02;;;0.80;;
43706;SDS011;61348;53.392;-6.248;2024-02-21T04:37:17;0.70;;;0.70;;
43706;SDS011;61348;53.392;-6.248;2024-02-21T04:39:45;1.00;;;0.90;;
43706;SDS011;61348;53.392;-6.248;2024-02-21T04:42:13;0.70;;;0.70;;
43706;SDS011;61348;53.392;-6.248;2024-02-21T04:44:40;1.08;;;0.73;;
43706;SDS011;61348;53.392;-6.248;2024-02-21T04:47:08;0.57;;;0.43;;
43706;SDS011;61348;53.392;-6.248;2024-02-21T04:49:35;3.10;;;0.60;;
43706;SDS011;61348;53.392;-6.248;2024-02-21T04:52:03;1.05;;;0.50;;
43706;SDS011;61348;53.392;-6.248;2024-02-21T04:54:30;0.28;;;0.28;;
43706;SDS011;61348;53.392;-6.248;2024-02-21T04:56:58;0.60;;;0.50;;
43706;SDS011;61348;53.392;-6.248;2024-02-21T04:59:25;0.38;;;0.22;;
43706;SDS011;61348;53.392;-6.248;2024-02-21T05:01:52;0.65;;;0.40;;
43706;SDS011;61348;53.392;-6.248;2024-02-21T05:04:20;0.52;;;0.52;;
43706;SDS011;61348;53.392;-6.248;2024-02-21T05:06:47;0.28;;;0.10;;
43706;SDS011;61348;53.392;-6.248;2024-02-21T05:09:15;1.10;;;0.10;;
43706;SDS011;61348;53.392;-6.248;2024-02-21T05:11:42;0.10;;;0.10;;
43706;SDS011;61348;53.392;-6.248;2024-02-21T05:14:10;0.15;;;0.15;;
43706;SDS011;61348;53.392;-6.248;2024-02-21T05:16:38;0.65;;;0.10;;
43706;SDS011;61348;53.392;-6.248;2024-02-21T05:19:06;0.47;;;0.05;;
43706;SDS011;61348;53.392;-6.248;2024-02-21T05:21:33;0.25;;;0.05;;
43706;SDS011;61348;53.392;-6.248;2024-02-21T05:24:00;0.00;;;0.00;;
43706;SDS011;61348;53.392;-6.248;2024-02-21T05:26:28;0.05;;;0.05;;
43706;SDS011;61348;53.392;-6.248;2024-02-21T05:28:55;0.25;;;0.00;;
43706;SDS011;61348;53.392;-6.248;2024-02-21T05:31:23;0.35;;;0.35;;
43706;SDS011;61348;53.392;-6.248;2024-02-21T05:33:50;0.10;;;0.10;;
43706;SDS011;61348;53.392;-6.248;2024-02-21T05:36:18;1.08;;;0.10;;
43706;SDS011;61348;53.392;-6.248;2024-02-21T05:38:45;0.28;;;0.20;;
43706;SDS011;61348;53.392;-6.248;2024-02-21T05:41:13;0.20;;;0.20;;
43706;SDS011;61348;53.392;-6.248;2024-02-21T05:43:40;0.30;;;0.28;;
43706;SDS011;61348;53.392;-6.248;2024-02-21T05:46:07;0.10;;;0.10;;
43706;SDS011;61348;53.392;-6.248;2024-02-21T05:48:35;0.88;;;0.30;;
43706;SDS011;61348;53.392;-6.248;2024-02-21T05:51:05;0.80;;;0.40;;
43706;SDS011;61348;53.392;-6.248;2024-02-21T05:53:33;1.58;;;0.40;;
43706;SDS011;61348;53.392;-6.248;2024-02-21T05:56:00;0.50;;;0.50;;
43706;SDS011;61348;53.392;-6.248;2024-02-21T05:58:28;1.20;;;0.55;;
43706;SDS011;61348;53.392;-6.248;2024-02-21T06:00:56;0.85;;;0.85;;
43706;SDS011;61348;53.392;-6.248;2024-02-21T06:03:23;0.93;;;0.60;;
43706;SDS011;61348;53.392;-6.248;2024-02-21T06:05:51;3.70;;;0.98;;
43706;SDS011;61348;53.392;-6.248;2024-02-21T06:08:18;1.02;;;0.47;;
43706;SDS011;61348;53.392;-6.248;2024-02-21T06:10:45;1.27;;;0.55;;
43706;SDS011;61348;53.392;-6.248;2024-02-21T06:13:14;2.45;;;0.80;;
43706;SDS011;61348;53.392;-6.248;2024-02-21T06:15:41;2.08;;;0.50;;
43706;SDS011;61348;53.392;-6.248;2024-02-21T06:18:09;0.70;;;0.60;;
43706;SDS011;61348;53.392;-6.248;2024-02-21T06:20:36;1.67;;;0.60;;
43706;SDS011;61348;53.392;-6.248;2024-02-21T06:23:06;1.15;;;0.47;;
43706;SDS011;61348;53.392;-6.248;2024-02-21T06:25:34;2.00;;;0.40;;
43706;SDS011;61348;53.392;-6.248;2024-02-21T06:28:01;1.40;;;0.30;;
43706;SDS011;61348;53.392;-6.248;2024-02-21T06:30:28;4.13;;;0.60;;
43706;SDS011;61348;53.392;-6.248;2024-02-21T06:32:56;1.17;;;0.55;;
43706;SDS011;61348;53.392;-6.248;2024-02-21T06:35:23;2.63;;;0.60;;
43706;SDS011;61348;53.392;-6.248;2024-02-21T06:37:54;1.20;;;0.30;;
43706;SDS011;61348;53.392;-6.248;2024-02-21T06:40:22;0.28;;;0.20;;
43706;SDS011;61348;53.392;-6.248;2024-02-21T06:42:50;3.05;;;0.50;;
43706;SDS011;61348;53.392;-6.248;2024-02-21T06:45:17;3.08;;;0.50;;
43706;SDS011;61348;53.392;-6.248;2024-02-21T06:47:45;2.45;;;0.52;;
43706;SDS011;61348;53.392;-6.248;2024-02-21T06:50:12;6.03;;;0.30;;
43706;SDS011;61348;53.392;-6.248;2024-02-21T06:52:39;1.98;;;0.35;;
43706;SDS011;61348;53.392;-6.248;2024-02-21T06:55:07;1.88;;;0.30;;
43706;SDS011;61348;53.392;-6.248;2024-02-21T06:57:34;1.05;;;0.30;;
43706;SDS011;61348;53.392;-6.248;2024-02-21T07:00:02;0.98;;;0.17;;
43706;SDS011;61348;53.392;-6.248;2024-02-21T07:02:29;1.63;;;0.10;;
43706;SDS011;61348;53.392;-6.248;2024-02-21T07:04:57;0.38;;;0.10;;
43706;SDS011;61348;53.392;-6.248;2024-02-21T07:07:24;1.42;;;0.15;;
43706;SDS011;61348;53.392;-6.248;2024-02-21T07:09:52;0.20;;;0.20;;
43706;SDS011;61348;53.392;-6.248;2024-02-21T07:12:20;0.32;;;0.10;;
43706;SDS011;61348;53.392;-6.248;2024-02-21T07:14:48;1.45;;;0.10;;
43706;SDS011;61348;53.392;-6.248;2024-02-21T07:17:15;0.00;;;0.00;;
43706;SDS011;61348;53.392;-6.248;2024-02-21T07:19:42;0.10;;;0.10;;
43706;SDS011;61348;53.392;-6.248;2024-02-21T07:22:10;0.10;;;0.08;;
43706;SDS011;61348;53.392;-6.248;2024-02-21T07:24:37;0.10;;;0.10;;
43706;SDS011;61348;53.392;-6.248;2024-02-21T07:27:04;0.20;;;0.00;;
43706;SDS011;61348;53.392;-6.248;2024-02-21T07:29:32;0.15;;;0.10;;
43706;SDS011;61348;53.392;-6.248;2024-02-21T07:32:00;0.20;;;0.00;;
43706;SDS011;61348;53.392;-6.248;2024-02-21T07:34:27;0.00;;;0.00;;
43706;SDS011;61348;53.392;-6.248;2024-02-21T07:36:55;0.05;;;0.05;;
43706;SDS011;61348;53.392;-6.248;2024-02-21T07:39:23;0.00;;;0.00;;
43706;SDS011;61348;53.392;-6.248;2024-02-21T07:41:50;0.22;;;0.00;;
43706;SDS011;61348;53.392;-6.248;2024-02-21T07:44:17;0.00;;;0.00;;
43706;SDS011;61348;53.392;-6.248;2024-02-21T07:46:45;0.00;;;0.00;;
43706;SDS011;61348;53.392;-6.248;2024-02-21T07:49:14;0.25;;;0.08;;
43706;SDS011;61348;53.392;-6.248;2024-02-21T07:51:42;0.00;;;0.00;;
43706;SDS011;61348;53.392;-6.248;2024-02-21T07:54:09;0.20;;;0.00;;
43706;SDS011;61348;53.392;-6.248;2024-02-21T07:56:41;0.05;;;0.00;;
43706;SDS011;61348;53.392;-6.248;2024-02-21T07:59:10;0.75;;;0.10;;
43706;SDS011;61348;53.392;-6.248;2024-02-21T08:01:37;0.10;;;0.00;;
43706;SDS011;61348;53.392;-6.248;2024-02-21T08:04:05;0.10;;;0.05;;
43706;SDS011;61348;53.392;-6.248;2024-02-21T08:06:32;0.03;;;0.00;;
43706;SDS011;61348;53.392;-6.248;2024-02-21T08:09:00;0.00;;;0.00;;
43706;SDS011;61348;53.392;-6.248;2024-02-21T08:11:27;0.38;;;0.05;;
43706;SDS011;61348;53.392;-6.248;2024-02-21T08:13:55;0.10;;;0.00;;
43706;SDS011;61348;53.392;-6.248;2024-02-21T08:16:24;0.00;;;0.00;;
43706;SDS011;61348;53.392;-6.248;2024-02-21T08:18:53;0.20;;;0.10;;
43706;SDS011;61348;53.392;-6.248;2024-02-21T08:21:20;0.50;;;0.15;;
43706;SDS011;61348;53.392;-6.248;2024-02-21T08:23:48;0.10;;;0.10;;
43706;SDS011;61348;53.392;-6.248;2024-02-21T08:26:18;0.05;;;0.03;;
43706;SDS011;61348;53.392;-6.248;2024-02-21T08:28:45;0.00;;;0.00;;
43706;SDS011;61348;53.392;-6.248;2024-02-21T08:31:18;2.53;;;1.08;;
43706;SDS011;61348;53.392;-6.248;2024-02-21T08:33:46;0.22;;;0.15;;
43706;SDS011;61348;53.392;-6.248;2024-02-21T08:36:17;0.00;;;0.00;;
43706;SDS011;61348;53.392;-6.248;2024-02-21T08:38:46;0.85;;;0.10;;
43706;SDS011;61348;53.392;-6.248;2024-02-21T08:41:14;0.32;;;0.10;;
43706;SDS011;61348;53.392;-6.248;2024-02-21T08:43:41;0.03;;;0.00;;
43706;SDS011;61348;53.392;-6.248;2024-02-21T08:46:08;0.10;;;0.10;;
43706;SDS011;61348;53.392;-6.248;2024-02-21T08:48:36;0.20;;;0.10;;
43706;SDS011;61348;53.392;-6.248;2024-02-21T08:51:03;0.10;;;0.10;;
43706;SDS011;61348;53.392;-6.248;2024-02-21T08:53:31;0.28;;;0.10;;
43706;SDS011;61348;53.392;-6.248;2024-02-21T08:55:58;0.10;;;0.05;;
43706;SDS011;61348;53.392;-6.248;2024-02-21T08:58:26;0.10;;;0.10;;
43706;SDS011;61348;53.392;-6.248;2024-02-21T09:00:53;0.00;;;0.00;;
43706;SDS011;61348;53.392;-6.248;2024-02-21T09:03:21;1.02;;;0.13;;
43706;SDS011;61348;53.392;-6.248;2024-02-21T09:05:48;0.88;;;0.30;;
43706;SDS011;61348;53.392;-6.248;2024-02-21T09:08:16;2.05;;;0.28;;
43706;SDS011;61348;53.392;-6.248;2024-02-21T09:10:43;0.30;;;0.28;;
43706;SDS011;61348;53.392;-6.248;2024-02-21T09:13:10;0.10;;;0.10;;
43706;SDS011;61348;53.392;-6.248;2024-02-21T09:15:38;1.65;;;0.22;;
43706;SDS011;61348;53.392;-6.248;2024-02-21T09:18:05;0.30;;;0.10;;
43706;SDS011;61348;53.392;-6.248;2024-02-21T09:20:33;0.20;;;0.20;;
43706;SDS011;61348;53.392;-6.248;2024-02-21T09:23:00;0.45;;;0.20;;
43706;SDS011;61348;53.392;-6.248;2024-02-21T09:25:29;1.65;;;0.10;;
43706;SDS011;61348;53.392;-6.248;2024-02-21T09:27:57;0.10;;;0.00;;
43706;SDS011;61348;53.392;-6.248;2024-02-21T09:30:25;0.20;;;0.20;;
43706;SDS011;61348;53.392;-6.248;2024-02-21T09:32:52;0.13;;;0.10;;
43706;SDS011;61348;53.392;-6.248;2024-02-21T09:35:20;0.75;;;0.10;;
43706;SDS011;61348;53.392;-6.248;2024-02-21T09:37:50;0.28;;;0.10;;
43706;SDS011;61348;53.392;-6.248;2024-02-21T09:40:17;0.10;;;0.10;;
43706;SDS011;61348;53.392;-6.248;2024-02-21T09:42:46;0.30;;;0.10;;
43706;SDS011;61348;53.392;-6.248;2024-02-21T09:45:21;0.38;;;0.20;;
43706;SDS011;61348;53.392;-6.248;2024-02-21T09:50:59;0.10;;;0.10;;
43706;SDS011;61348;53.392;-6.248;2024-02-21T09:53:27;0.05;;;0.05;;
43706;SDS011;61348;53.392;-6.248;2024-02-21T09:55:56;0.10;;;0.10;;
43706;SDS011;61348;53.392;-6.248;2024-02-21T09:58:24;0.20;;;0.00;;
43706;SDS011;61348;53.392;-6.248;2024-02-21T10:00:54;0.80;;;0.20;;
43706;SDS011;61348;53.392;-6.248;2024-02-21T10:03:22;0.65;;;0.10;;
43706;SDS011;61348;53.392;-6.248;2024-02-21T10:05:49;0.28;;;0.20;;
43706;SDS011;61348;53.392;-6.248;2024-02-21T10:08:18;0.52;;;0.10;;
43706;SDS011;61348;53.392;-6.248;2024-02-21T10:10:46;0.45;;;0.10;;
43706;SDS011;61348;53.392;-6.248;2024-02-21T10:13:26;0.50;;;0.10;;
43706;SDS011;61348;53.392;-6.248;2024-02-21T10:16:28;0.10;;;0.10;;
43706;SDS011;61348;53.392;-6.248;2024-02-21T10:18:53;0.45;;;0.10;;
43706;SDS011;61348;53.392;-6.248;2024-02-21T10:21:21;0.05;;;0.05;;
43706;SDS011;61348;53.392;-6.248;2024-02-21T10:23:49;0.35;;;0.10;;
43706;SDS011;61348;53.392;-6.248;2024-02-21T10:26:18;0.00;;;0.00;;
43706;SDS011;61348;53.392;-6.248;2024-02-21T10:28:46;0.00;;;0.00;;
43706;SDS011;61348;53.392;-6.248;2024-02-21T10:31:22;0.00;;;0.00;;
43706;SDS011;61348;53.392;-6.248;2024-02-21T10:33:55;1.05;;;0.13;;
43706;SDS011;61348;53.392;-6.248;2024-02-21T10:36:26;0.00;;;0.00;;
43706;SDS011;61348;53.392;-6.248;2024-02-21T10:38:54;0.38;;;0.10;;
43706;SDS011;61348;53.392;-6.248;2024-02-21T10:41:22;0.28;;;0.10;;
43706;SDS011;61348;53.392;-6.248;2024-02-21T10:43:51;0.20;;;0.10;;
43706;SDS011;61348;53.392;-6.248;2024-02-21T10:46:22;0.08;;;0.00;;
43706;SDS011;61348;53.392;-6.248;2024-02-21T10:51:50;1.13;;;0.20;;
43706;SDS011;61348;53.392;-6.248;2024-02-21T10:54:45;0.35;;;0.10;;
43706;SDS011;61348;53.392;-6.248;2024-02-21T10:57:18;0.30;;;0.10;;
43706;SDS011;61348;53.392;-6.248;2024-02-21T10:59:49;0.43;;;0.20;;
43706;SDS011;61348;53.392;-6.248;2024-02-21T11:02:17;0.13;;;0.13;;
43706;SDS011;61348;53.392;-6.248;2024-02-21T11:04:47;0.43;;;0.20;;
43706;SDS011;61348;53.392;-6.248;2024-02-21T11:07:17;0.43;;;0.10;;
43706;SDS011;61348;53.392;-6.248;2024-02-21T11:09:51;0.00;;;0.00;;
43706;SDS011;61348;53.392;-6.248;2024-02-21T11:12:20;0.40;;;0.10;;
43706;SDS011;61348;53.392;-6.248;2024-02-21T11:14:48;0.63;;;0.28;;
43706;SDS011;61348;53.392;-6.248;2024-02-21T11:17:16;0.47;;;0.20;;
43706;SDS011;61348;53.392;-6.248;2024-02-21T11:19:45;0.52;;;0.00;;
43706;SDS011;61348;53.392;-6.248;2024-02-21T11:22:16;1.10;;;0.17;;
43706;SDS011;61348;53.392;-6.248;2024-02-21T11:24:45;0.85;;;0.30;;
43706;SDS011;61348;53.392;-6.248;2024-02-21T11:27:16;1.95;;;0.40;;
43706;SDS011;61348;53.392;-6.248;2024-02-21T11:29:55;0.13;;;0.03;;
43706;SDS011;61348;53.392;-6.248;2024-02-21T11:32:24;0.65;;;0.20;;
43706;SDS011;61348;53.392;-6.248;2024-02-21T11:34:55;1.60;;;0.20;;
43706;SDS011;61348;53.392;-6.248;2024-02-21T11:37:33;0.90;;;0.38;;
43706;SDS011;61348;53.392;-6.248;2024-02-21T11:40:04;1.08;;;0.50;;
43706;SDS011;61348;53.392;-6.248;2024-02-21T11:42:34;0.25;;;0.10;;
43706;SDS011;61348;53.392;-6.248;2024-02-21T11:45:02;2.00;;;0.40;;
43706;SDS011;61348;53.392;-6.248;2024-02-21T11:47:30;1.13;;;0.57;;
43706;SDS011;61348;53.392;-6.248;2024-02-21T11:49:57;1.08;;;0.50;;
43706;SDS011;61348;53.392;-6.248;2024-02-21T11:52:25;0.50;;;0.32;;
43706;SDS011;61348;53.392;-6.248;2024-02-21T11:54:54;0.60;;;0.20;;
43706;SDS011;61348;53.392;-6.248;2024-02-21T11:57:31;3.00;;;0.30;;
43706;SDS011;61348;53.392;-6.248;2024-02-21T11:59:59;6.13;;;0.40;;
43706;SDS011;61348;53.392;-6.248;2024-02-21T12:02:37;2.08;;;0.30;;
43706;SDS011;61348;53.392;-6.248;2024-02-21T12:05:04;0.60;;;0.30;;
43706;SDS011;61348;53.392;-6.248;2024-02-21T12:07:32;2.00;;;0.40;;
43706;SDS011;61348;53.392;-6.248;2024-02-21T12:10:00;1.42;;;0.20;;
43706;SDS011;61348;53.392;-6.248;2024-02-21T12:12:27;1.67;;;0.60;;
43706;SDS011;61348;53.392;-6.248;2024-02-21T12:14:56;2.67;;;0.40;;
43706;SDS011;61348;53.392;-6.248;2024-02-21T12:17:26;0.70;;;0.40;;
43706;SDS011;61348;53.392;-6.248;2024-02-21T12:19:53;2.97;;;0.32;;
43706;SDS011;61348;53.392;-6.248;2024-02-21T12:22:21;1.75;;;0.52;;
43706;SDS011;61348;53.392;-6.248;2024-02-21T12:24:48;1.02;;;0.30;;
43706;SDS011;61348;53.392;-6.248;2024-02-21T12:27:16;2.08;;;0.43;;
43706;SDS011;61348;53.392;-6.248;2024-02-21T12:29:43;1.10;;;0.40;;
43706;SDS011;61348;53.392;-6.248;2024-02-21T12:32:10;0.30;;;0.30;;
43706;SDS011;61348;53.392;-6.248;2024-02-21T12:34:38;2.47;;;1.15;;
43706;SDS011;61348;53.392;-6.248;2024-02-21T12:37:21;1.07;;;0.43;;
43706;SDS011;61348;53.392;-6.248;2024-02-21T12:39:51;4.65;;;0.90;;
43706;SDS011;61348;53.392;-6.248;2024-02-21T12:42:18;1.85;;;0.40;;
43706;SDS011;61348;53.392;-6.248;2024-02-21T12:44:46;1.60;;;0.57;;
43706;SDS011;61348;53.392;-6.248;2024-02-21T12:47:13;3.78;;;1.02;;
43706;SDS011;61348;53.392;-6.248;2024-02-21T12:49:41;3.80;;;1.80;;
43706;SDS011;61348;53.392;-6.248;2024-02-21T12:52:12;1.58;;;0.82;;
43706;SDS011;61348;53.392;-6.248;2024-02-21T12:54:40;1.23;;;0.50;;
43706;SDS011;61348;53.392;-6.248;2024-02-21T12:57:09;3.20;;;0.70;;
43706;SDS011;61348;53.392;-6.248;2024-02-21T12:59:38;7.22;;;0.70;;
43706;SDS011;61348;53.392;-6.248;2024-02-21T13:02:05;10.48;;;3.40;;
43706;SDS011;61348;53.392;-6.248;2024-02-21T13:04:33;4.75;;;1.15;;
43706;SDS011;61348;53.392;-6.248;2024-02-21T13:07:00;3.60;;;0.90;;
43706;SDS011;61348;53.392;-6.248;2024-02-21T13:09:28;4.68;;;0.80;;
43706;SDS011;61348;53.392;-6.248;2024-02-21T13:11:55;2.70;;;0.93;;
43706;SDS011;61348;53.392;-6.248;2024-02-21T13:14:22;5.10;;;1.92;;
43706;SDS011;61348;53.392;-6.248;2024-02-21T13:16:50;3.10;;;0.50;;
43706;SDS011;61348;53.392;-6.248;2024-02-21T13:19:18;3.25;;;0.68;;
43706;SDS011;61348;53.392;-6.248;2024-02-21T13:21:45;3.55;;;0.80;;
43706;SDS011;61348;53.392;-6.248;2024-02-21T13:24:13;3.25;;;0.90;;
43706;SDS011;61348;53.392;-6.248;2024-02-21T13:26:40;2.85;;;0.77;;
43706;SDS011;61348;53.392;-6.248;2024-02-21T13:29:07;5.15;;;0.43;;
43706;SDS011;61348;53.392;-6.248;2024-02-21T13:31:35;4.75;;;0.75;;
43706;SDS011;61348;53.392;-6.248;2024-02-21T13:34:02;2.70;;;0.55;;
43706;SDS011;61348;53.392;-6.248;2024-02-21T13:36:30;3.15;;;0.77;;
43706;SDS011;61348;53.392;-6.248;2024-02-21T13:38:57;2.67;;;0.52;;
43706;SDS011;61348;53.392;-6.248;2024-02-21T13:41:25;2.97;;;0.90;;
43706;SDS011;61348;53.392;-6.248;2024-02-21T13:43:53;4.72;;;1.45;;
43706;SDS011;61348;53.392;-6.248;2024-02-21T13:46:20;3.75;;;0.65;;
43706;SDS011;61348;53.392;-6.248;2024-02-21T13:48:49;4.07;;;1.23;;
43706;SDS011;61348;53.392;-6.248;2024-02-21T13:51:16;3.47;;;0.63;;
43706;SDS011;61348;53.392;-6.248;2024-02-21T13:53:44;1.83;;;0.77;;
43706;SDS011;61348;53.392;-6.248;2024-02-21T13:56:11;1.85;;;0.70;;
43706;SDS011;61348;53.392;-6.248;2024-02-21T13:58:38;1.20;;;0.80;;
43706;SDS011;61348;53.392;-6.248;2024-02-21T14:01:06;2.40;;;0.68;;
43706;SDS011;61348;53.392;-6.248;2024-02-21T14:03:33;6.53;;;0.82;;
43706;SDS011;61348;53.392;-6.248;2024-02-21T14:06:00;3.33;;;0.73;;
43706;SDS011;61348;53.392;-6.248;2024-02-21T14:08:28;2.83;;;0.63;;
43706;SDS011;61348;53.392;-6.248;2024-02-21T14:10:55;2.10;;;0.85;;
43706;SDS011;61348;53.392;-6.248;2024-02-21T14:13:23;2.38;;;1.13;;
43706;SDS011;61348;53.392;-6.248;2024-02-21T14:15:50;3.15;;;0.88;;
43706;SDS011;61348;53.392;-6.248;2024-02-21T14:18:18;3.13;;;0.57;;
43706;SDS011;61348;53.392;-6.248;2024-02-21T14:20:45;2.38;;;0.85;;
43706;SDS011;61348;53.392;-6.248;2024-02-21T14:23:14;3.45;;;0.60;;
43706;SDS011;61348;53.392;-6.248;2024-02-21T14:25:41;7.50;;;0.93;;
43706;SDS011;61348;53.392;-6.248;2024-02-21T14:28:09;2.42;;;0.55;;
43706;SDS011;61348;53.392;-6.248;2024-02-21T14:30:36;5.22;;;0.80;;
43706;SDS011;61348;53.392;-6.248;2024-02-21T14:33:03;6.13;;;1.00;;
43706;SDS011;61348;53.392;-6.248;2024-02-21T14:35:31;9.32;;;1.10;;
43706;SDS011;61348;53.392;-6.248;2024-02-21T14:37:59;5.18;;;1.00;;
43706;SDS011;61348;53.392;-6.248;2024-02-21T14:40:28;5.00;;;1.08;;
43706;SDS011;61348;53.392;-6.248;2024-02-21T14:42:57;3.55;;;0.80;;
43706;SDS011;61348;53.392;-6.248;2024-02-21T14:45:24;4.43;;;1.50;;